createdAt,value
2024-03-07T00:00:16.088Z,80.77
2024-03-07T00:02:44.948Z,80.52
2024-03-07T00:05:14.001Z,80.78
2024-03-07T00:07:42.681Z,81.08
2024-03-07T00:10:12.583Z,81.11
2024-03-07T00:12:42.009Z,81.99
2024-03-07T00:15:12.915Z,84.43
2024-03-07T00:17:41.865Z,87.08
2024-03-07T00:20:16.168Z,87.32
2024-03-07T00:22:45.448Z,87.07
2024-03-07T00:25:15.834Z,87.40
2024-03-07T00:27:46.533Z,87.83
2024-03-07T00:30:19.933Z,87.93
2024-03-07T00:32:49.249Z,89.24
2024-03-07T00:35:17.848Z,89.17
2024-03-07T00:37:46.462Z,89.91
2024-03-07T00:40:14.669Z,90.07
2024-03-07T00:42:42.819Z,90.26
2024-03-07T00:45:11.051Z,90.15
2024-03-07T00:47:40.730Z,89.38
2024-03-07T00:50:10.614Z,89.36
2024-03-07T00:52:39.091Z,89.97
2024-03-07T00:55:09.685Z,89.32
2024-03-07T00:57:37.873Z,88.89
2024-03-07T01:00:06.686Z,89.60
2024-03-07T01:02:35.453Z,89.46
2024-03-07T01:05:09.649Z,89.43
2024-03-07T01:07:38.359Z,89.44
2024-03-07T01:10:08.790Z,87.87
2024-03-07T01:12:36.804Z,90.15
2024-03-07T01:15:05.884Z,90.59
2024-03-07T01:17:34.619Z,90.10
2024-03-07T01:20:04.217Z,89.07
2024-03-07T01:22:32.229Z,88.81
2024-03-07T01:25:00.265Z,87.93
2024-03-07T01:27:28.517Z,88.54
2024-03-07T01:29:56.601Z,89.61
2024-03-07T01:32:24.793Z,89.62
2024-03-07T01:34:52.874Z,90.43
2024-03-07T01:37:22.714Z,90.87
2024-03-07T01:39:50.735Z,91.06
2024-03-07T01:42:18.784Z,91.12
2024-03-07T01:44:46.933Z,91.02
2024-03-07T01:47:16.821Z,91.49
2024-03-07T01:49:45.014Z,91.44
2024-03-07T01:52:13.462Z,91.78
2024-03-07T01:54:42.894Z,91.43
2024-03-07T01:57:11.029Z,90.88
2024-03-07T01:59:41.052Z,89.93
2024-03-07T02:02:09.278Z,90.73
2024-03-07T02:04:37.303Z,90.09
2024-03-07T02:07:05.384Z,89.75
2024-03-07T02:09:33.447Z,90.50
2024-03-07T02:12:03.170Z,90.11
2024-03-07T02:14:31.286Z,90.62
2024-03-07T02:16:59.328Z,90.49
2024-03-07T02:19:27.654Z,90.27
2024-03-07T02:21:57.064Z,90.10
2024-03-07T02:24:25.074Z,90.65
2024-03-07T02:26:53.906Z,90.95
2024-03-07T02:29:21.996Z,91.14
2024-03-07T02:31:50.073Z,90.95
2024-03-07T02:34:18.145Z,90.94
2024-03-07T02:36:46.178Z,91.15
2024-03-07T02:39:16.394Z,91.23
2024-03-07T02:41:44.497Z,91.51
2024-03-07T02:44:13.697Z,91.37
2024-03-07T02:46:41.765Z,91.63
2024-03-07T02:49:10.323Z,91.88
2024-03-07T02:51:38.394Z,91.49
2024-03-07T02:54:06.816Z,92.01
2024-03-07T02:56:36.473Z,91.98
2024-03-07T02:59:05.176Z,91.71
2024-03-07T03:01:33.403Z,91.87
2024-03-07T03:04:01.682Z,91.67
2024-03-07T03:06:29.949Z,92.08
2024-03-07T03:08:58.230Z,92.10
2024-03-07T03:11:26.987Z,92.40
2024-03-07T03:13:56.987Z,92.43
2024-03-07T03:16:38.882Z,92.23
2024-03-07T03:19:13.304Z,92.23
2024-03-07T03:21:42.072Z,92.06
2024-03-07T03:24:10.322Z,92.18
2024-03-07T03:26:38.448Z,91.98
2024-03-07T03:29:08.751Z,91.99
2024-03-07T03:31:36.793Z,92.14
2024-03-07T03:34:04.898Z,92.12
2024-03-07T03:36:32.938Z,91.93
2024-03-07T03:39:01.193Z,91.97
2024-03-07T03:41:29.314Z,92.08
2024-03-07T03:43:57.422Z,91.99
2024-03-07T03:46:26.878Z,91.96
2024-03-07T03:48:54.896Z,91.23
2024-03-07T03:51:23.307Z,91.30
2024-03-07T03:53:53.006Z,90.86
2024-03-07T03:56:21.313Z,90.45
2024-03-07T03:58:49.757Z,90.63
2024-03-07T04:01:17.862Z,90.51
2024-03-07T04:03:48.479Z,89.83
2024-03-07T04:06:17.194Z,89.63
2024-03-07T04:08:45.262Z,89.98
2024-03-07T04:11:13.842Z,90.02
2024-03-07T04:13:42.037Z,90.01
2024-03-07T04:16:10.429Z,89.41
2024-03-07T04:18:38.924Z,89.75
2024-03-07T04:21:10.730Z,89.61
2024-03-07T04:23:40.511Z,89.15
2024-03-07T04:26:09.837Z,89.19
2024-03-07T04:28:37.914Z,89.40
2024-03-07T04:31:05.960Z,89.39
2024-03-07T04:33:34.138Z,89.32
2024-03-07T04:36:04.178Z,89.48
2024-03-07T04:38:33.902Z,88.95
2024-03-07T04:41:02.020Z,88.73
2024-03-07T04:43:30.086Z,88.54
2024-03-07T04:45:58.134Z,88.40
2024-03-07T04:48:26.394Z,88.20
2024-03-07T04:50:54.516Z,88.08
2024-03-07T04:53:22.598Z,88.20
2024-03-07T04:55:52.109Z,87.94
2024-03-07T04:58:20.186Z,88.42
2024-03-07T05:00:48.226Z,88.18
2024-03-07T05:03:16.317Z,88.25
2024-03-07T05:05:44.379Z,88.77
2024-03-07T05:08:13.284Z,88.76
2024-03-07T05:10:42.442Z,88.58
2024-03-07T05:13:11.916Z,88.60
2024-03-07T05:15:41.031Z,88.77
2024-03-07T05:18:11.588Z,88.80
2024-03-07T05:20:39.932Z,89.21
2024-03-07T05:23:07.978Z,88.69
2024-03-07T05:25:36.023Z,88.76
2024-03-07T05:28:05.229Z,88.78
2024-03-07T05:30:34.751Z,88.96
2024-03-07T05:33:03.103Z,89.21
2024-03-07T05:35:31.633Z,88.89
2024-03-07T05:38:01.189Z,88.81
2024-03-07T05:40:29.251Z,88.69
2024-03-07T05:42:57.939Z,88.59
2024-03-07T05:45:25.990Z,88.77
2024-03-07T05:47:55.565Z,88.32
2024-03-07T05:50:23.832Z,87.94
2024-03-07T05:52:51.968Z,87.57
2024-03-07T05:55:20.743Z,87.71
2024-03-07T05:57:48.956Z,87.23
2024-03-07T06:00:28.462Z,87.16
2024-03-07T06:02:59.033Z,87.44
2024-03-07T06:05:28.224Z,87.87
2024-03-07T06:07:57.637Z,87.04
2024-03-07T06:10:26.424Z,87.55
2024-03-07T06:13:05.692Z,87.72
2024-03-07T06:15:39.394Z,87.47
2024-03-07T06:18:13.002Z,86.98
2024-03-07T06:20:42.297Z,87.12
2024-03-07T06:23:13.129Z,86.62
2024-03-07T06:25:48.669Z,86.42
2024-03-07T06:28:16.985Z,86.41
2024-03-07T06:30:46.149Z,85.83
2024-03-07T06:33:17.970Z,85.73
2024-03-07T06:35:46.546Z,85.29
2024-03-07T06:38:14.854Z,85.59
2024-03-07T06:40:44.601Z,85.53
2024-03-07T06:43:12.703Z,85.24
2024-03-07T06:45:42.877Z,84.85
2024-03-07T06:48:11.360Z,84.75
2024-03-07T06:50:41.131Z,84.50
2024-03-07T06:53:09.958Z,84.58
2024-03-07T06:55:38.353Z,83.92
2024-03-07T06:58:06.879Z,84.38
2024-03-07T07:00:38.348Z,84.20
2024-03-07T07:03:07.684Z,83.70
2024-03-07T07:05:36.517Z,84.76
2024-03-07T07:08:07.810Z,84.19
2024-03-07T07:10:37.325Z,84.25
2024-03-07T07:13:06.579Z,84.53
2024-03-07T07:15:34.086Z,83.89
2024-03-07T07:18:03.611Z,84.29
2024-03-07T07:20:32.152Z,84.79
2024-03-07T07:23:02.008Z,84.28
2024-03-07T07:25:31.615Z,84.09
2024-03-07T07:27:59.671Z,84.03
2024-03-07T07:30:28.136Z,84.36
2024-03-07T07:32:56.391Z,84.45
2024-03-07T07:35:25.214Z,84.11
2024-03-07T07:37:56.863Z,84.16
2024-03-07T07:40:28.445Z,83.46
2024-03-07T07:42:58.178Z,83.11
2024-03-07T07:45:26.583Z,82.53
2024-03-07T07:47:55.537Z,83.31
2024-03-07T07:50:25.201Z,81.62
2024-03-07T07:52:55.615Z,81.76
2024-03-07T07:55:25.052Z,81.70
2024-03-07T07:57:54.711Z,81.53
2024-03-07T08:00:26.063Z,81.33
2024-03-07T08:02:56.131Z,81.67
2024-03-07T08:05:25.770Z,82.19
2024-03-07T08:07:54.632Z,81.16
2024-03-07T08:10:24.343Z,81.44
2024-03-07T08:12:52.691Z,81.07
2024-03-07T08:15:21.265Z,80.54
2024-03-07T08:17:52.818Z,80.17
2024-03-07T08:20:23.618Z,81.12
2024-03-07T08:22:53.897Z,80.09
2024-03-07T08:25:24.540Z,79.85
2024-03-07T08:27:54.216Z,79.64
2024-03-07T08:30:31.996Z,79.74
2024-03-07T08:33:03.574Z,78.72
2024-03-07T08:35:31.854Z,78.50
2024-03-07T08:38:00.130Z,79.31
2024-03-07T08:40:32.612Z,79.56
2024-03-07T08:43:01.496Z,78.88
2024-03-07T08:45:35.382Z,80.62
2024-03-07T08:48:06.611Z,78.92
2024-03-07T08:50:35.956Z,79.21
2024-03-07T08:53:05.846Z,80.33
2024-03-07T08:55:34.102Z,78.66
2024-03-07T08:58:02.135Z,78.56
2024-03-07T09:00:35.343Z,77.72
2024-03-07T09:03:10.739Z,77.00
2024-03-07T09:05:40.197Z,77.03
2024-03-07T09:08:08.942Z,79.03
2024-03-07T09:10:37.628Z,76.67
2024-03-07T09:13:07.381Z,77.23
2024-03-07T09:15:38.103Z,77.07
2024-03-07T09:18:07.205Z,78.07
2024-03-07T09:20:36.029Z,76.13
2024-03-07T09:23:04.141Z,77.41
2024-03-07T09:25:34.206Z,78.00
2024-03-07T09:28:02.656Z,76.79
2024-03-07T09:30:31.905Z,77.27
2024-03-07T09:33:03.039Z,77.84
2024-03-07T09:35:31.157Z,76.56
2024-03-07T09:37:59.197Z,77.80
2024-03-07T09:40:28.330Z,76.93
2024-03-07T09:42:59.674Z,76.55
2024-03-07T09:45:32.856Z,76.19
2024-03-07T09:48:03.746Z,75.82
2024-03-07T09:50:32.819Z,76.55
2024-03-07T09:53:01.845Z,75.39
2024-03-07T09:55:30.623Z,75.68
2024-03-07T09:58:01.125Z,73.99
2024-03-07T10:00:31.347Z,74.55
2024-03-07T10:03:04.383Z,74.23
2024-03-07T10:05:33.617Z,73.01
2024-03-07T10:08:02.891Z,76.17
2024-03-07T10:10:32.055Z,75.29
2024-03-07T10:13:01.460Z,74.73
2024-03-07T10:15:31.030Z,74.51
2024-03-07T10:17:59.366Z,74.85
2024-03-07T10:20:29.350Z,74.13
2024-03-07T10:22:58.166Z,72.82
2024-03-07T10:25:29.456Z,73.25
2024-03-07T10:27:59.307Z,74.55
2024-03-07T10:30:28.810Z,72.51
2024-03-07T10:32:59.845Z,73.12
2024-03-07T10:35:32.252Z,71.61
2024-03-07T10:38:02.826Z,72.13
2024-03-07T10:40:31.957Z,71.95
2024-03-07T10:43:04.173Z,72.75
2024-03-07T10:45:32.917Z,73.28
2024-03-07T10:48:03.075Z,71.13
2024-03-07T10:50:45.834Z,72.61
2024-03-07T10:53:24.260Z,71.96
2024-03-07T10:56:07.511Z,73.32
2024-03-07T10:58:40.015Z,73.35
2024-03-07T11:01:12.281Z,73.41
2024-03-07T11:03:40.651Z,73.10
2024-03-07T11:06:12.949Z,73.06
2024-03-07T11:08:41.549Z,73.31
2024-03-07T11:11:09.980Z,72.45
2024-03-07T11:13:38.816Z,73.63
2024-03-07T11:16:07.976Z,72.70
2024-03-07T11:18:36.300Z,75.51
2024-03-07T11:21:05.951Z,72.61
2024-03-07T11:23:39.619Z,72.88
2024-03-07T11:26:09.904Z,73.72
2024-03-07T11:28:40.022Z,74.35
2024-03-07T11:31:15.209Z,73.67
2024-03-07T11:33:45.234Z,73.68
2024-03-07T11:36:14.243Z,73.95
2024-03-07T11:38:50.833Z,74.04
2024-03-07T11:41:21.678Z,73.62
2024-03-07T11:43:49.710Z,73.82
2024-03-07T11:46:19.004Z,76.24
2024-03-07T11:48:47.273Z,74.11
2024-03-07T11:51:16.728Z,74.91
2024-03-07T11:53:49.210Z,73.94
2024-03-07T11:56:18.953Z,74.33
2024-03-07T11:58:53.562Z,74.89
2024-03-07T12:01:26.792Z,73.96
2024-03-07T12:03:57.514Z,73.96
2024-03-07T12:06:26.579Z,74.70
2024-03-07T12:08:54.689Z,74.98
2024-03-07T12:11:27.229Z,76.00
2024-03-07T12:13:55.540Z,76.07
2024-03-07T12:16:28.848Z,75.66
2024-03-07T12:18:58.688Z,76.91
2024-03-07T12:21:28.954Z,75.56
2024-03-07T12:23:57.094Z,75.51
2024-03-07T12:26:29.207Z,74.71
2024-03-07T12:28:58.554Z,74.65
2024-03-07T12:31:26.623Z,74.83
2024-03-07T12:33:54.971Z,76.27
2024-03-07T12:36:28.672Z,75.12
2024-03-07T12:38:57.733Z,74.47
2024-03-07T12:41:27.433Z,75.70
2024-03-07T12:43:55.824Z,75.51
2024-03-07T12:46:24.418Z,75.68
2024-03-07T12:48:52.598Z,76.04
2024-03-07T12:51:23.993Z,76.39
2024-03-07T12:53:52.325Z,76.81
2024-03-07T12:56:21.496Z,74.90
2024-03-07T12:58:51.220Z,75.52
2024-03-07T13:01:20.384Z,75.31
2024-03-07T13:03:49.797Z,74.38
2024-03-07T13:06:20.871Z,73.39
2024-03-07T13:08:49.073Z,74.68
2024-03-07T13:11:17.385Z,73.07
2024-03-07T13:13:45.456Z,73.91
2024-03-07T13:16:14.912Z,74.03
2024-03-07T13:18:43.718Z,74.46
2024-03-07T13:21:12.175Z,74.14
2024-03-07T13:23:41.410Z,73.09
2024-03-07T13:26:18.160Z,73.33
2024-03-07T13:28:46.611Z,72.64
2024-03-07T13:31:18.560Z,72.92
2024-03-07T13:33:50.240Z,73.74
2024-03-07T13:36:24.140Z,72.05
2024-03-07T13:38:53.294Z,73.23
2024-03-07T13:41:21.763Z,71.56
2024-03-07T13:43:49.882Z,72.57
2024-03-07T13:46:20.060Z,72.08
2024-03-07T13:48:48.435Z,72.66
2024-03-07T13:51:18.372Z,72.47
2024-03-07T13:53:51.829Z,72.75
2024-03-07T13:56:37.592Z,72.98
2024-03-07T13:59:31.419Z,73.98
2024-03-07T14:02:12.204Z,73.43
2024-03-07T14:05:23.991Z,74.05
2024-03-07T14:08:03.991Z,73.94
2024-03-07T14:11:08.598Z,73.07
2024-03-07T14:13:44.509Z,73.35
2024-03-07T14:16:29.793Z,74.38
2024-03-07T14:19:24.025Z,73.33
2024-03-07T14:21:58.007Z,74.34
2024-03-07T14:25:07.684Z,73.32
2024-03-07T14:27:38.407Z,73.00
2024-03-07T14:30:36.313Z,74.09
2024-03-07T14:33:05.660Z,73.14
2024-03-07T14:36:02.244Z,72.63
2024-03-07T14:38:37.524Z,72.83
2024-03-07T14:41:06.164Z,72.88
2024-03-07T14:43:34.165Z,72.18
2024-03-07T14:46:01.234Z,73.40
2024-03-07T14:48:29.516Z,71.13
2024-03-07T14:50:59.065Z,71.38
2024-03-07T14:53:27.226Z,69.94
2024-03-07T14:55:57.106Z,70.39
2024-03-07T14:58:25.142Z,70.63
2024-03-07T15:00:57.966Z,70.55
2024-03-07T15:03:30.264Z,70.09
2024-03-07T15:06:00.602Z,72.00
2024-03-07T15:08:29.599Z,69.03
2024-03-07T15:11:05.117Z,69.54
2024-03-07T15:13:33.209Z,69.96
2024-03-07T15:16:01.367Z,71.05
2024-03-07T15:18:29.745Z,69.77
2024-03-07T15:20:59.353Z,69.80
2024-03-07T15:23:28.165Z,71.05
2024-03-07T15:28:25.893Z,70.71
2024-03-07T15:30:54.096Z,69.35
2024-03-07T15:33:23.929Z,70.21
2024-03-07T15:35:53.350Z,70.61
2024-03-07T15:38:22.864Z,69.99
2024-03-07T15:40:51.412Z,69.80
2024-03-07T15:43:20.580Z,70.38
2024-03-07T15:45:52.142Z,70.75
2024-03-07T15:48:24.224Z,71.60
2024-03-07T15:50:53.128Z,69.51
2024-03-07T15:53:22.578Z,69.30
2024-03-07T15:55:51.306Z,69.92
2024-03-07T15:58:19.516Z,70.04
2024-03-07T16:00:48.682Z,69.78
2024-03-07T16:03:16.699Z,71.73
2024-03-07T16:05:48.428Z,71.96
2024-03-07T16:08:19.016Z,72.88
2024-03-07T16:10:48.976Z,70.53
2024-03-07T16:13:17.165Z,71.23
2024-03-07T16:15:48.386Z,71.08
2024-03-07T16:18:17.331Z,71.89
2024-03-07T16:20:48.332Z,70.40
2024-03-07T16:23:18.061Z,72.29
2024-03-07T16:25:46.481Z,72.12
2024-03-07T16:28:18.429Z,71.90
2024-03-07T16:30:47.599Z,71.48
2024-03-07T16:33:18.876Z,72.07
2024-03-07T16:35:47.932Z,72.05
2024-03-07T16:38:16.045Z,73.81
2024-03-07T16:40:44.733Z,73.84
2024-03-07T16:43:14.424Z,74.26
2024-03-07T16:45:45.728Z,75.16
2024-03-07T16:48:16.555Z,75.72
2024-03-07T16:50:45.097Z,76.12
2024-03-07T16:53:17.883Z,76.08
2024-03-07T16:55:49.233Z,75.48
2024-03-07T16:58:18.602Z,76.04
2024-03-07T17:00:48.162Z,76.65
2024-03-07T17:03:16.740Z,76.82
2024-03-07T17:05:46.150Z,76.83
2024-03-07T17:08:17.437Z,76.97
2024-03-07T17:10:46.994Z,76.93
2024-03-07T17:13:16.850Z,77.03
2024-03-07T17:15:45.959Z,77.20
2024-03-07T17:18:17.754Z,77.42
2024-03-07T17:20:47.309Z,77.53
2024-03-07T17:23:18.195Z,77.48
2024-03-07T17:25:47.882Z,77.46
2024-03-07T17:28:17.843Z,77.68
2024-03-07T17:30:46.043Z,77.49
2024-03-07T17:33:17.044Z,77.64
2024-03-07T17:35:46.105Z,77.63
2024-03-07T17:38:15.536Z,77.91
2024-03-07T17:40:44.556Z,77.79
2024-03-07T17:43:13.188Z,77.90
2024-03-07T17:45:41.444Z,77.99
2024-03-07T17:48:11.856Z,78.01
2024-03-07T17:50:43.630Z,78.27
2024-03-07T17:53:15.065Z,77.66
2024-03-07T17:55:45.590Z,78.38
2024-03-07T17:58:15.016Z,78.41
2024-03-07T18:00:46.734Z,78.83
2024-03-07T18:03:17.880Z,79.23
2024-03-07T18:05:51.315Z,79.08
2024-03-07T18:08:34.409Z,78.71
2024-03-07T18:11:15.117Z,78.77
2024-03-07T18:13:44.435Z,78.68
2024-03-07T18:16:15.305Z,78.56
2024-03-07T18:18:47.209Z,78.69
2024-03-07T18:21:17.255Z,78.58
2024-03-07T18:23:46.841Z,78.65
2024-03-07T18:26:15.596Z,78.69
2024-03-07T18:28:45.385Z,78.46
2024-03-07T18:31:16.924Z,78.54
2024-03-07T18:33:46.178Z,78.67
2024-03-07T18:36:14.557Z,78.35
2024-03-07T18:38:45.175Z,78.58
2024-03-07T18:41:13.776Z,78.63
2024-03-07T18:43:42.568Z,78.71
2024-03-07T18:46:10.982Z,78.68
2024-03-07T18:48:41.162Z,78.62
2024-03-07T18:51:10.231Z,79.25
2024-03-07T18:53:38.626Z,79.14
2024-03-07T18:56:12.162Z,79.22
2024-03-07T18:58:40.767Z,79.16
2024-03-07T19:01:09.646Z,79.20
2024-03-07T19:03:38.047Z,78.95
2024-03-07T19:06:09.897Z,79.05
2024-03-07T19:08:38.671Z,79.42
2024-03-07T19:11:08.563Z,79.11
2024-03-07T19:13:37.581Z,79.81
2024-03-07T19:16:10.090Z,80.77
2024-03-07T19:18:38.558Z,81.26
2024-03-07T19:21:11.572Z,81.57
2024-03-07T19:23:46.193Z,82.11
2024-03-07T19:26:20.516Z,82.42
2024-03-07T19:28:49.104Z,82.86
2024-03-07T19:31:17.527Z,82.80
2024-03-07T19:33:45.940Z,83.11
2024-03-07T19:36:16.104Z,83.63
2024-03-07T19:38:46.930Z,84.29
2024-03-07T19:41:16.828Z,84.83
2024-03-07T19:43:45.052Z,85.62
2024-03-07T19:46:13.833Z,85.46
2024-03-07T19:48:42.216Z,85.06
2024-03-07T19:51:13.013Z,84.45
2024-03-07T19:53:41.353Z,84.39
2024-03-07T19:56:13.839Z,84.92
2024-03-07T19:58:45.967Z,84.53
2024-03-07T20:01:14.028Z,84.02
2024-03-07T20:03:42.346Z,83.46
2024-03-07T20:06:11.525Z,83.42
2024-03-07T20:08:39.937Z,82.72
2024-03-07T20:11:08.385Z,83.71
2024-03-07T20:13:41.069Z,83.43
2024-03-07T20:16:10.868Z,83.23
2024-03-07T20:18:42.684Z,82.95
2024-03-07T20:21:11.497Z,82.45
2024-03-07T20:23:41.670Z,81.76
2024-03-07T20:26:10.224Z,81.42
2024-03-07T20:28:38.920Z,81.40
2024-03-07T20:31:09.171Z,80.75
2024-03-07T20:33:39.365Z,80.76
2024-03-07T20:36:09.930Z,80.85
2024-03-07T20:38:39.659Z,80.78
2024-03-07T20:41:07.948Z,81.18
2024-03-07T20:43:36.171Z,80.96
2024-03-07T20:46:07.031Z,80.95
2024-03-07T20:48:36.094Z,80.96
2024-03-07T20:51:06.839Z,80.56
2024-03-07T20:53:35.347Z,80.97
2024-03-07T20:56:07.544Z,80.69
2024-03-07T20:58:36.742Z,81.03
2024-03-07T21:01:05.103Z,81.00
2024-03-07T21:03:33.153Z,80.78
2024-03-07T21:06:01.307Z,80.93
2024-03-07T21:08:34.216Z,81.05
2024-03-07T21:11:03.681Z,80.68
2024-03-07T21:13:31.788Z,80.59
2024-03-07T21:15:59.881Z,81.12
2024-03-07T21:18:28.401Z,80.76
2024-03-07T21:20:56.842Z,81.13
2024-03-07T21:23:25.505Z,81.37
2024-03-07T21:25:55.686Z,81.48
2024-03-07T21:28:23.744Z,82.08
2024-03-07T21:30:54.056Z,82.39
2024-03-07T21:33:22.617Z,82.88
2024-03-07T21:35:50.735Z,82.82
2024-03-07T21:38:20.252Z,83.35
2024-03-07T21:40:48.907Z,83.30
2024-03-07T21:43:18.368Z,83.68
2024-03-07T21:45:46.372Z,83.47
2024-03-07T21:50:43.794Z,83.04
2024-03-07T21:53:12.288Z,82.67
2024-03-07T21:55:40.334Z,82.89
2024-03-07T21:58:09.875Z,82.82
2024-03-07T22:00:39.721Z,82.21
2024-03-07T22:03:09.975Z,81.85
2024-03-07T22:05:38.135Z,82.53
2024-03-07T22:08:07.042Z,81.79
2024-03-07T22:10:36.493Z,81.67
2024-03-07T22:13:06.525Z,81.91
2024-03-07T22:15:35.798Z,82.67
2024-03-07T22:18:06.460Z,82.83
2024-03-07T22:20:38.697Z,82.17
2024-03-07T22:23:08.436Z,82.80
2024-03-07T22:25:37.313Z,82.67
2024-03-07T22:28:06.032Z,82.58
2024-03-07T22:30:34.350Z,82.87
2024-03-07T22:33:02.766Z,83.29
2024-03-07T22:35:32.269Z,83.45
2024-03-07T22:38:01.942Z,83.08
2024-03-07T22:40:30.441Z,82.99
2024-03-07T22:42:58.570Z,82.49
2024-03-07T22:45:27.271Z,82.14
2024-03-07T22:47:55.775Z,81.91
2024-03-07T22:50:29.757Z,81.46
2024-03-07T22:53:02.510Z,82.02
2024-03-07T22:55:31.889Z,82.00
2024-03-07T22:58:00.208Z,82.48
2024-03-07T23:00:33.136Z,82.14
2024-03-07T23:03:04.438Z,81.71
2024-03-07T23:05:32.940Z,81.48
2024-03-07T23:08:02.448Z,81.71
2024-03-07T23:10:31.105Z,81.29
2024-03-07T23:13:00.431Z,81.28
2024-03-07T23:15:29.064Z,81.24
2024-03-07T23:17:58.238Z,81.15
2024-03-07T23:20:28.212Z,81.74
2024-03-07T23:22:58.254Z,81.61
2024-03-07T23:25:28.821Z,81.80
2024-03-07T23:27:57.650Z,81.38
2024-03-07T23:30:27.973Z,81.40
2024-03-07T23:32:57.154Z,81.33
2024-03-07T23:35:25.715Z,81.61
2024-03-07T23:37:54.116Z,82.38
2024-03-07T23:40:22.315Z,82.32
2024-03-07T23:42:52.983Z,82.85
2024-03-07T23:45:22.225Z,83.04
2024-03-07T23:47:50.913Z,83.30
2024-03-07T23:50:19.188Z,83.13
2024-03-07T23:52:47.459Z,83.32
2024-03-07T23:55:18.317Z,83.68
2024-03-07T23:57:47.656Z,84.56
